ADDS METAR Data INFO
IDs: Format: Raw Decoded Include TAF

Data at: 1559 UTC 12 Dec 2017

KILG 121551Z 25008KT 10SM BKN060 OVC075 07/02 A2956 RMK AO2 SLP010 T00670022 $
KILG 121451Z 21007KT 10SM BKN090 OVC110 07/02 A2959 RMK AO2 SLP019 T00670022 56019 $
KILG 121351Z 20006KT 10SM CLR 06/02 A2960 RMK AO2 SLP024 T00610017 $
KILG 121251Z 17010KT 10SM FEW070 BKN095 OVC120 06/02 A2962 RMK AO2 SLP029 T00610022 $
KILG 121151Z 17012KT 10SM OVC110 06/02 A2965 RMK AO2 SLP039 T00610022 10061 20044 56030 $
KILG 121051Z AUTO 18016G22KT 10SM CLR 06/02 A2966 RMK AO2 SLP044 T00610022 $
KILG 120951Z AUTO 17013KT 10SM SCT095 BKN120 06/02 A2970 RMK AO2 PK WND 17027/0858 SLP058 T00560017 $
KILG 120851Z AUTO 17017KT 10SM CLR 06/01 A2974 RMK AO2 SLP069 T00560011 58039 $
KILG 120751Z AUTO 16016KT 10SM OVC095 05/00 A2978 RMK AO2 SLP085 T00500000 $
KILG 120651Z AUTO 18009KT 10SM CLR 05/M01 A2983 RMK AO2 SLP102 T00501011 $
KILG 120551Z AUTO 17013KT 10SM CLR 04/M01 A2985 RMK AO2 SLP108 T00441011 10044 20022 58037 $
KILG 120451Z AUTO 18008KT 10SM CLR 04/M02 A2990 RMK AO2 SLP125 T00391017 400670006 $
KILG 120351Z AUTO 13006KT 10SM CLR 03/M02 A2993 RMK AO2 SLP136 T00281017 $
KILG 120251Z AUTO 13007KT 10SM OVC090 03/M02 A2996 RMK AO2 SLP147 T00331022 58009 $
KILG 120151Z 14006KT 10SM OVC095 03/M03 A2998 RMK AO2 SLP153 T00281033 $
KILG 120051Z 12005KT 10SM FEW090 03/M04 A3000 RMK AO2 SLP159 T00281039 $
KILG 112351Z 11006KT 10SM BKN110 03/M03 A2999 RMK AO2 SLP156 T00281033 10067 20022 58008 $
KILG 112251Z 11005KT 10SM CLR 03/M04 A3001 RMK AO2 SLP161 T00331039 $
KILG 112151Z 15003KT 10SM CLR 04/M04 A3002 RMK AO2 SLP165 T00391044 $
KILG 112051Z 00000KT 10SM CLR 05/M04 A3001 RMK AO2 SLP164 T00501044 55012 $
KILG 111951Z 29007KT 10SM CLR 06/M04 A3001 RMK AO2 SLP162 T00611039 $
KILG 111851Z 30007KT 10SM CLR 06/M04 A3003 RMK AO2 SLP171 T00561039 $
KILG 111751Z 30007KT 10SM CLR 06/M04 A3005 RMK AO2 SLP175 T00561044 10056 20006 58013 $
KILG 111651Z 26012KT 10SM OVC048 06/M04 A3007 RMK AO2 SLP183 T00561044 $
KILG 111626Z 30011G18KT 10SM OVC048 05/M05 A3008 RMK AO2 T00501050 $
KILG 111551Z 27007KT 10SM BKN050 05/M04 A3009 RMK AO2 SLP191 T00501044 $
KILG 111451Z 26008KT 10SM BKN060 04/M04 A3009 RMK AO2 SLP188 T00391044 51008 $
KILG 111351Z 25004KT 10SM OVC055 02/M02 A3008 RMK AO2 SLP187 T00171022 $
KILG 111251Z 26004KT 10SM OVC055 01/M02 A3007 RMK AO2 SLP184 T00111017 $
KILG 111151Z 24004KT 10SM OVC060 01/M02 A3006 RMK AO2 SLP180 T00061017 10022 20006 53008 $
KILG 111121Z 25003KT 10SM OVC070 01/M02 A3005 RMK AO2 T00061017 $
KILG 111051Z AUTO 27004KT 10SM BKN065 01/M02 A3005 RMK AO2 SLP176 T00061022 $
KILG 110951Z AUTO 21004KT 10SM BKN080 OVC090 01/M02 A3003 RMK AO2 SLP170 T00111017 $
KILG 110851Z AUTO 20005KT 10SM BKN070 OVC080 01/M01 A3004 RMK AO2 SLP172 T00111011 56002 $
KILG 110751Z AUTO 22005KT 10SM OVC038 02/M03 A3004 RMK AO2 SLP173 T00221028 $
KILG 110651Z AUTO 31005KT 10SM BKN060 OVC075 01/M02 A3004 RMK AO2 SLP173 T00061022 $
KILG 110551Z AUTO 22004KT 10SM BKN075 OVC095 01/M03 A3004 RMK AO2 SLP174 T00111028 10011 20006 58004 $
KILG 110451Z AUTO 22005KT 10SM BKN110 01/M03 A3005 RMK AO2 SLP177 T00111033 400391033 $